createdAt,value
2018-05-13T00:02:13.567Z,13.93
2018-05-13T00:04:43.485Z,13.07
2018-05-13T00:07:13.203Z,11.93
2018-05-13T00:09:46.795Z,13.20
2018-05-13T00:12:16.728Z,11.33
2018-05-13T00:14:57.808Z,13.10
2018-05-13T00:17:27.683Z,13.80
2018-05-13T00:19:57.231Z,13.87
2018-05-13T00:22:25.780Z,13.77
2018-05-13T00:24:58.982Z,13.30
2018-05-13T00:27:28.853Z,12.90
2018-05-13T00:29:57.411Z,13.43
2018-05-13T00:32:27.177Z,13.03
2018-05-13T00:34:59.898Z,12.00
2018-05-13T00:37:29.467Z,11.40
2018-05-13T00:40:11.475Z,12.20
2018-05-13T00:42:43.398Z,12.53
2018-05-13T00:45:12.986Z,11.90
2018-05-13T00:47:42.498Z,11.57
2018-05-13T00:50:12.115Z,10.83
2018-05-13T00:52:41.793Z,12.27
2018-05-13T00:55:11.417Z,11.43
2018-05-13T00:57:40.977Z,12.10
2018-05-13T01:00:13.717Z,12.50
2018-05-13T01:02:43.597Z,13.40
2018-05-13T01:05:16.492Z,12.93
2018-05-13T01:07:46.039Z,12.37
2018-05-13T01:10:17.599Z,12.67
2018-05-13T01:12:47.176Z,12.20
2018-05-13T01:15:20.177Z,11.50
2018-05-13T01:17:50.034Z,11.70
2018-05-13T01:20:22.265Z,10.93
2018-05-13T01:22:51.850Z,11.10
2018-05-13T01:25:24.208Z,11.13
2018-05-13T01:27:53.161Z,11.27
2018-05-13T01:30:26.551Z,9.90
2018-05-13T01:32:56.937Z,11.13
2018-05-13T01:35:27.285Z,11.13
2018-05-13T01:37:57.001Z,10.80
2018-05-13T01:40:39.417Z,11.83
2018-05-13T01:43:08.996Z,11.43
2018-05-13T01:45:38.941Z,10.77
2018-05-13T01:48:08.552Z,11.43
2018-05-13T01:50:38.152Z,12.73
2018-05-13T01:53:07.946Z,13.03
2018-05-13T01:55:37.479Z,12.40
2018-05-13T01:58:06.998Z,8.50
2018-05-13T02:00:38.876Z,9.53
2018-05-13T02:03:08.516Z,10.13
2018-05-13T02:05:49.937Z,10.43
2018-05-13T02:08:19.720Z,11.33
2018-05-13T02:10:49.263Z,9.20
2018-05-13T02:13:18.234Z,8.30
2018-05-13T02:15:48.035Z,8.70
2018-05-13T02:18:17.376Z,9.83
2018-05-13T02:20:48.077Z,9.20
2018-05-13T02:23:17.895Z,9.77
2018-05-13T02:25:59.644Z,9.63
2018-05-13T02:28:29.559Z,9.77
2018-05-13T02:30:59.227Z,10.00
2018-05-13T02:33:28.775Z,9.93
2018-05-13T02:35:58.819Z,10.33
2018-05-13T02:38:28.321Z,8.87
2018-05-13T02:40:57.863Z,9.67
2018-05-13T02:43:27.375Z,9.97
2018-05-13T02:46:09.248Z,10.30
2018-05-13T02:48:39.063Z,9.70
2018-05-13T02:51:08.640Z,9.60
2018-05-13T02:53:38.378Z,9.97
2018-05-13T02:56:08.022Z,9.57
2018-05-13T02:58:37.563Z,10.07
2018-05-13T03:01:19.751Z,9.47
2018-05-13T03:03:48.907Z,9.57
2018-05-13T03:06:18.421Z,10.23
2018-05-13T03:08:47.952Z,10.03
2018-05-13T03:11:17.168Z,8.70
2018-05-13T03:13:46.666Z,8.83
2018-05-13T03:16:16.218Z,7.20
2018-05-13T03:18:46.014Z,7.63
2018-05-13T03:21:19.521Z,7.97
2018-05-13T03:23:49.041Z,7.63
2018-05-13T03:26:21.010Z,8.47
2018-05-13T03:28:49.850Z,9.77
2018-05-13T03:31:22.770Z,9.07
2018-05-13T03:33:52.378Z,9.63
2018-05-13T03:36:24.959Z,7.60
2018-05-13T03:38:54.678Z,7.53
2018-05-13T03:41:27.753Z,6.90
2018-05-13T03:43:56.614Z,5.90
2018-05-13T03:46:29.982Z,6.10
2018-05-13T03:48:59.831Z,6.20
2018-05-13T03:51:29.848Z,6.17
2018-05-13T03:53:59.515Z,6.43
2018-05-13T03:56:32.444Z,7.17
2018-05-13T03:59:02.080Z,7.67
2018-05-13T04:01:44.606Z,7.47
2018-05-13T04:04:14.445Z,6.63
2018-05-13T04:06:44.037Z,7.20
2018-05-13T04:09:19.060Z,7.03
2018-05-13T04:13:57.174Z,6.47
2018-05-13T04:16:26.566Z,6.60
2018-05-13T04:18:56.962Z,7.10
2018-05-13T04:21:26.530Z,6.57
2018-05-13T04:23:56.543Z,7.40
2018-05-13T04:26:25.892Z,7.23
2018-05-13T04:28:55.374Z,8.17
2018-05-13T04:31:24.898Z,8.23
2018-05-13T04:33:55.109Z,8.53
2018-05-13T04:36:24.865Z,9.03
2018-05-13T04:38:55.491Z,9.33
2018-05-13T04:41:25.250Z,9.10
2018-05-13T04:43:58.079Z,8.70
2018-05-13T04:46:27.576Z,8.97
2018-05-13T04:49:01.014Z,9.27
2018-05-13T04:51:29.928Z,9.30
2018-05-13T04:54:11.781Z,10.07
2018-05-13T04:56:41.592Z,10.00
2018-05-13T04:59:11.871Z,10.03
2018-05-13T05:01:40.438Z,9.90
2018-05-13T05:04:10.237Z,9.77
2018-05-13T05:06:38.808Z,9.43
2018-05-13T05:09:21.603Z,9.77
2018-05-13T05:11:51.948Z,10.43
2018-05-13T05:14:20.917Z,10.60
2018-05-13T05:16:49.863Z,11.50
2018-05-13T05:19:19.128Z,10.67
2018-05-13T05:21:48.683Z,11.73
2018-05-13T05:24:19.091Z,11.30
2018-05-13T05:26:49.982Z,10.70
2018-05-13T05:29:20.902Z,11.03
2018-05-13T05:31:50.447Z,10.53
2018-05-13T05:34:23.189Z,11.67
2018-05-13T05:36:51.684Z,13.27
2018-05-13T05:39:25.054Z,12.33
2018-05-13T05:41:53.979Z,13.97
2018-05-13T05:44:27.290Z,12.70
2018-05-13T05:46:56.839Z,13.57
2018-05-13T05:49:28.707Z,14.23
2018-05-13T05:51:58.238Z,13.73
2018-05-13T05:54:40.349Z,15.77
2018-05-13T05:57:10.610Z,15.30
2018-05-13T05:59:39.944Z,15.97
2018-05-13T06:02:09.650Z,15.77
2018-05-13T06:04:38.534Z,15.93
2018-05-13T06:07:08.043Z,16.00
2018-05-13T06:09:38.600Z,16.27
2018-05-13T06:12:08.403Z,17.33
2018-05-13T06:14:41.043Z,15.87
2018-05-13T06:17:10.592Z,16.07
2018-05-13T06:19:42.464Z,14.93
2018-05-13T06:22:12.040Z,15.40
2018-05-13T06:24:45.724Z,17.00
2018-05-13T06:27:15.479Z,16.60
2018-05-13T06:29:48.316Z,19.07
2018-05-13T06:32:18.097Z,18.57
2018-05-13T06:34:50.217Z,18.50
2018-05-13T06:37:20.232Z,18.97
2018-05-13T06:39:52.256Z,20.67
2018-05-13T06:42:22.316Z,21.00
2018-05-13T06:44:55.154Z,19.57
2018-05-13T06:47:24.686Z,19.60
2018-05-13T06:50:05.907Z,20.50
2018-05-13T06:52:35.707Z,21.23
2018-05-13T06:55:05.515Z,21.13
2018-05-13T06:57:35.078Z,20.13
2018-05-13T07:00:03.689Z,22.73
2018-05-13T07:02:33.984Z,21.77
2018-05-13T07:05:07.004Z,22.13
2018-05-13T07:07:37.098Z,22.33
2018-05-13T07:10:10.086Z,20.87
2018-05-13T07:12:38.647Z,23.33
2018-05-13T07:15:11.137Z,24.50
2018-05-13T07:17:40.792Z,25.30
2018-05-13T07:20:14.368Z,24.47
2018-05-13T07:22:44.283Z,26.07
2018-05-13T07:25:17.587Z,24.23
2018-05-13T07:27:47.421Z,23.70
2018-05-13T07:30:17.735Z,26.60
2018-05-13T07:32:47.337Z,26.13
2018-05-13T07:35:19.678Z,28.00
2018-05-13T07:37:49.569Z,27.33
2018-05-13T07:40:22.994Z,28.90
2018-05-13T07:42:52.656Z,27.90
2018-05-13T07:45:25.546Z,29.63
2018-05-13T07:47:54.492Z,27.97
2018-05-13T07:50:26.539Z,28.27
2018-05-13T07:52:55.457Z,28.37
2018-05-13T07:55:27.065Z,28.57
2018-05-13T07:57:57.182Z,30.13
2018-05-13T08:00:30.125Z,28.87
2018-05-13T08:02:59.622Z,29.60
2018-05-13T08:05:33.726Z,28.67
2018-05-13T08:08:03.402Z,30.40
2018-05-13T08:10:35.491Z,29.47
2018-05-13T08:13:06.902Z,31.20
2018-05-13T08:15:39.355Z,29.63
2018-05-13T08:18:09.010Z,28.47
2018-05-13T08:20:39.371Z,29.43
2018-05-13T08:23:09.077Z,29.43
2018-05-13T08:25:42.414Z,27.83
2018-05-13T08:28:13.442Z,29.37
2018-05-13T08:30:43.764Z,30.43
2018-05-13T08:33:13.364Z,30.83
2018-05-13T08:35:55.059Z,30.80
2018-05-13T08:38:24.073Z,30.97
2018-05-13T08:40:52.796Z,31.50
2018-05-13T08:43:23.053Z,31.97
2018-05-13T08:45:52.740Z,30.13
2018-05-13T08:48:22.911Z,29.07
2018-05-13T08:50:54.919Z,30.60
2018-05-13T08:53:23.474Z,31.57
2018-05-13T08:55:57.658Z,30.70
2018-05-13T08:58:28.561Z,28.30
2018-05-13T09:01:01.165Z,32.33
2018-05-13T09:03:30.495Z,32.23
2018-05-13T09:06:02.424Z,30.77
2018-05-13T09:08:32.491Z,31.80
2018-05-13T09:11:04.876Z,29.60
2018-05-13T09:13:34.247Z,30.83
2018-05-13T09:16:16.108Z,33.47
2018-05-13T09:18:45.076Z,30.87
2018-05-13T09:21:14.009Z,32.07
2018-05-13T09:23:43.062Z,30.83
2018-05-13T09:26:13.763Z,32.57
2018-05-13T09:28:43.056Z,34.33
2018-05-13T09:31:16.006Z,31.63
2018-05-13T09:33:47.891Z,33.83
2018-05-13T09:36:17.765Z,33.10
2018-05-13T09:38:47.118Z,32.73
2018-05-13T09:41:19.548Z,31.97
2018-05-13T09:43:49.066Z,34.10
2018-05-13T09:46:30.607Z,33.10
2018-05-13T09:49:00.604Z,32.03
2018-05-13T09:51:30.257Z,30.47
2018-05-13T09:53:59.797Z,33.73
2018-05-13T09:56:30.198Z,33.87
2018-05-13T09:58:59.082Z,32.83
2018-05-13T10:01:28.712Z,32.83
2018-05-13T10:03:58.749Z,34.40
2018-05-13T10:06:31.854Z,33.13
2018-05-13T10:09:01.870Z,32.50
2018-05-13T10:11:32.238Z,33.63
2018-05-13T10:14:01.810Z,31.40
2018-05-13T10:16:35.284Z,29.37
2018-05-13T10:19:04.768Z,27.53
2018-05-13T10:21:38.018Z,27.00
2018-05-13T10:24:07.651Z,26.57
2018-05-13T10:26:38.830Z,27.70
2018-05-13T10:29:07.785Z,27.03
2018-05-13T10:31:42.224Z,27.40
2018-05-13T10:34:12.266Z,25.93
2018-05-13T10:36:43.142Z,27.27
2018-05-13T10:39:12.071Z,27.37
2018-05-13T10:41:50.376Z,27.40
2018-05-13T10:44:20.429Z,26.00
2018-05-13T10:46:48.929Z,24.63
2018-05-13T10:49:18.923Z,25.90
2018-05-13T10:51:51.586Z,25.80
2018-05-13T10:54:20.472Z,26.43
2018-05-13T10:56:56.013Z,25.50
2018-05-13T10:59:24.805Z,23.87
2018-05-13T11:01:56.314Z,24.93
2018-05-13T11:04:26.066Z,24.27
2018-05-13T11:06:58.678Z,24.30
2018-05-13T11:09:27.582Z,21.73
2018-05-13T11:12:01.512Z,22.80
2018-05-13T11:14:31.227Z,23.30
2018-05-13T11:17:04.238Z,22.80
2018-05-13T11:19:33.989Z,22.97
2018-05-13T11:22:07.312Z,22.73
2018-05-13T11:24:36.112Z,21.97
2018-05-13T11:27:18.035Z,21.77
2018-05-13T11:29:47.927Z,23.17
2018-05-13T11:32:17.739Z,24.20
2018-05-13T11:34:47.123Z,24.50
2018-05-13T11:37:16.882Z,24.00
2018-05-13T11:39:46.464Z,25.77
2018-05-13T11:42:16.652Z,24.50
2018-05-13T11:44:46.304Z,25.20
2018-05-13T11:47:18.326Z,25.50
2018-05-13T11:49:47.287Z,24.57
2018-05-13T11:52:29.538Z,24.20
2018-05-13T11:54:58.467Z,23.73
2018-05-13T11:57:27.819Z,24.90
2018-05-13T11:59:57.502Z,25.50
2018-05-13T12:02:27.114Z,27.17
2018-05-13T12:04:57.410Z,26.47
2018-05-13T12:07:27.240Z,26.83
2018-05-13T12:09:56.766Z,28.83
2018-05-13T12:12:28.817Z,29.00
2018-05-13T12:14:58.338Z,28.43
2018-05-13T12:17:31.774Z,29.20
2018-05-13T12:20:00.678Z,30.37
2018-05-13T12:22:41.822Z,29.90
2018-05-13T12:25:10.320Z,29.57
2018-05-13T12:27:38.908Z,31.23
2018-05-13T12:30:07.779Z,29.97
2018-05-13T12:32:38.580Z,30.80
2018-05-13T12:35:08.604Z,29.80
2018-05-13T12:37:41.455Z,27.90
2018-05-13T12:40:10.828Z,27.70
2018-05-13T12:42:42.459Z,28.87
2018-05-13T12:45:12.241Z,28.47
2018-05-13T12:47:45.039Z,27.10
2018-05-13T12:50:13.621Z,26.60
2018-05-13T12:52:46.269Z,28.13
2018-05-13T12:55:15.922Z,26.37
2018-05-13T12:57:49.691Z,27.33
2018-05-13T13:00:20.046Z,26.77
2018-05-13T13:02:53.139Z,27.43
2018-05-13T13:05:22.787Z,27.97
2018-05-13T13:07:55.852Z,26.63
2018-05-13T13:10:24.426Z,26.97
2018-05-13T13:12:58.275Z,28.30
2018-05-13T13:15:27.617Z,27.90
2018-05-13T13:18:00.486Z,28.33
2018-05-13T13:20:30.276Z,27.23
2018-05-13T13:23:02.917Z,26.93
2018-05-13T13:25:32.424Z,27.47
2018-05-13T13:28:06.348Z,28.97
2018-05-13T13:30:36.033Z,27.73
2018-05-13T13:33:09.676Z,27.30
2018-05-13T13:35:38.560Z,27.70
2018-05-13T13:38:11.210Z,26.57
2018-05-13T13:40:42.517Z,27.20
2018-05-13T13:43:13.786Z,26.87
2018-05-13T13:45:43.601Z,27.73
2018-05-13T13:48:14.391Z,26.00
2018-05-13T13:50:43.270Z,25.80
2018-05-13T13:53:16.458Z,26.43
2018-05-13T13:55:45.978Z,26.03
2018-05-13T13:58:19.400Z,25.80
2018-05-13T14:00:49.399Z,28.03
2018-05-13T14:03:23.144Z,26.53
2018-05-13T14:05:54.466Z,28.57
2018-05-13T14:08:24.755Z,26.37
2018-05-13T14:10:54.486Z,27.17
2018-05-13T14:26:42.632Z,23.80
2018-05-13T14:29:12.294Z,24.20
2018-05-13T14:31:42.148Z,25.23
2018-05-13T14:34:11.819Z,24.33
2018-05-13T14:36:41.207Z,26.57
2018-05-13T14:39:12.258Z,26.53
2018-05-13T14:41:40.637Z,27.30
2018-05-13T14:44:09.195Z,27.60
2018-05-13T14:51:10.146Z,26.70
2018-05-13T14:53:46.344Z,26.50
2018-05-13T14:56:15.663Z,26.93
2018-05-13T15:03:22.904Z,27.53
2018-05-13T15:05:52.819Z,26.97
2018-05-13T15:08:22.375Z,28.37
2018-05-13T15:10:52.775Z,28.80
2018-05-13T15:13:23.558Z,29.97
2018-05-13T15:28:43.705Z,33.03
2018-05-13T15:31:12.235Z,32.53
2018-05-13T15:33:42.584Z,31.13
2018-05-13T15:36:11.159Z,33.30
2018-05-13T15:38:40.458Z,29.97
2018-05-13T15:41:09.739Z,32.23
2018-05-13T15:43:39.022Z,29.63
2018-05-13T15:46:11.522Z,29.77
2018-05-13T15:48:41.247Z,31.03
2018-05-13T15:51:13.882Z,31.37
2018-05-13T15:53:42.824Z,31.10
2018-05-13T15:56:15.615Z,30.10
2018-05-13T15:58:44.240Z,32.40
2018-05-13T16:01:27.183Z,31.83
2018-05-13T16:03:56.973Z,32.27
2018-05-13T16:06:26.568Z,33.07
2018-05-13T16:08:56.072Z,31.80
2018-05-13T16:11:25.634Z,30.30
2018-05-13T16:13:55.134Z,33.37
2018-05-13T16:16:27.401Z,31.00
2018-05-13T16:18:57.218Z,30.80
2018-05-13T16:21:26.842Z,30.87
2018-05-13T16:23:56.436Z,32.43
2018-05-13T16:26:28.960Z,33.33
2018-05-13T16:28:57.527Z,32.83
2018-05-13T16:31:39.585Z,34.47
2018-05-13T16:34:09.406Z,33.53
2018-05-13T16:36:39.536Z,35.20
2018-05-13T16:39:09.570Z,35.33
2018-05-13T16:41:39.174Z,38.03
2018-05-13T16:44:08.727Z,35.60
2018-05-13T16:46:38.746Z,36.23
2018-05-13T16:49:08.459Z,37.87
2018-05-13T16:51:41.269Z,35.03
2018-05-13T16:54:10.912Z,36.47
2018-05-13T16:56:43.963Z,37.60
2018-05-13T16:59:13.284Z,36.80
2018-05-13T17:01:45.294Z,35.10
2018-05-13T17:04:14.609Z,36.33
2018-05-13T17:06:56.268Z,35.73
2018-05-13T17:09:26.321Z,35.07
2018-05-13T17:11:54.865Z,37.73
2018-05-13T17:14:23.756Z,35.57
2018-05-13T17:16:54.195Z,33.53
2018-05-13T17:19:23.880Z,36.37
2018-05-13T17:21:55.939Z,38.13
2018-05-13T17:24:27.676Z,38.97
2018-05-13T17:26:57.479Z,37.70
2018-05-13T17:29:25.988Z,38.40
2018-05-13T17:32:01.652Z,38.97
2018-05-13T17:34:33.157Z,38.57
2018-05-13T17:37:02.817Z,40.80
2018-05-13T17:39:34.818Z,40.47
2018-05-13T17:42:07.419Z,37.67
2018-05-13T17:44:36.205Z,37.43
2018-05-13T17:47:09.279Z,38.53
2018-05-13T17:49:38.311Z,38.60
2018-05-13T17:52:11.903Z,41.57
2018-05-13T17:54:40.420Z,39.80
2018-05-13T17:57:21.371Z,37.40
2018-05-13T17:59:50.171Z,38.93
2018-05-13T18:02:20.325Z,39.67
2018-05-13T18:04:48.795Z,39.17
2018-05-13T18:07:18.412Z,38.97
2018-05-13T18:09:48.016Z,38.87
2018-05-13T18:12:21.488Z,40.63
2018-05-13T18:14:50.830Z,38.13
2018-05-13T18:17:23.835Z,40.27
2018-05-13T18:19:53.574Z,39.50
2018-05-13T18:22:25.159Z,40.80
2018-05-13T18:24:53.928Z,38.47
2018-05-13T18:27:35.063Z,41.47
2018-05-13T18:30:03.616Z,38.53
2018-05-13T18:32:34.397Z,40.60
2018-05-13T18:35:03.072Z,40.73
2018-05-13T18:37:32.837Z,39.40
2018-05-13T18:40:04.712Z,38.77
2018-05-13T18:42:34.854Z,40.00
2018-05-13T18:45:03.516Z,36.10
2018-05-13T18:47:36.070Z,36.83
2018-05-13T18:50:05.734Z,39.60
2018-05-13T18:52:48.083Z,38.67
2018-05-13T18:55:18.017Z,36.47
2018-05-13T18:57:47.698Z,38.63
2018-05-13T19:00:17.765Z,38.40
2018-05-13T19:02:48.908Z,37.10
2018-05-13T19:05:18.983Z,38.50
2018-05-13T19:07:49.882Z,37.20
2018-05-13T19:10:19.832Z,38.70
2018-05-13T19:12:48.886Z,39.30
2018-05-13T19:15:18.332Z,35.27
2018-05-13T19:17:49.622Z,33.97
2018-05-13T19:20:19.077Z,38.37
2018-05-13T19:22:51.224Z,36.00
2018-05-13T19:25:23.166Z,35.30
2018-05-13T19:27:55.543Z,35.70
2018-05-13T19:30:24.087Z,35.87
2018-05-13T19:32:56.690Z,33.77
2018-05-13T19:35:25.213Z,35.13
2018-05-13T19:38:07.558Z,34.80
2018-05-13T19:40:37.567Z,34.70
2018-05-13T19:43:07.282Z,33.57
2018-05-13T19:45:36.292Z,34.83
2018-05-13T19:48:06.803Z,34.03
2018-05-13T19:50:36.004Z,33.23
2018-05-13T19:53:09.438Z,34.60
2018-05-13T19:55:39.042Z,35.93
2018-05-13T19:58:20.051Z,35.20
2018-05-13T20:00:49.874Z,35.73
2018-05-13T20:03:18.643Z,34.30
2018-05-13T20:05:47.426Z,33.27
2018-05-13T20:08:17.287Z,33.37
2018-05-13T20:10:46.238Z,34.40
2018-05-13T20:13:18.131Z,30.77
2018-05-13T20:15:48.054Z,32.87
2018-05-13T20:18:20.478Z,32.00
2018-05-13T20:20:51.180Z,31.93
2018-05-13T20:23:26.424Z,30.73
2018-05-13T20:25:55.540Z,31.20
2018-05-13T20:28:24.851Z,31.00
2018-05-13T20:30:54.278Z,28.97
2018-05-13T20:33:28.247Z,28.33
2018-05-13T20:35:58.698Z,26.43
2018-05-13T20:38:29.146Z,27.10
2018-05-13T20:40:58.498Z,28.60
2018-05-13T20:43:30.483Z,27.07
2018-05-13T20:46:01.417Z,28.83
2018-05-13T20:48:33.861Z,28.63
2018-05-13T20:51:03.142Z,27.93
2018-05-13T20:53:35.828Z,28.57
2018-05-13T20:56:05.100Z,27.17
2018-05-13T20:58:46.694Z,28.30
2018-05-13T21:01:17.743Z,29.33
2018-05-13T21:03:47.277Z,29.13
2018-05-13T21:06:17.742Z,26.30
2018-05-13T21:08:49.289Z,29.10
2018-05-13T21:11:18.083Z,27.53
2018-05-13T21:13:47.444Z,27.13
2018-05-13T21:16:16.194Z,27.53
2018-05-13T21:18:47.710Z,27.17
2018-05-13T21:21:17.682Z,28.00
2018-05-13T21:23:50.086Z,26.73
2018-05-13T21:26:19.667Z,26.77
2018-05-13T21:29:00.642Z,27.17
2018-05-13T21:31:29.614Z,27.63
2018-05-13T21:33:58.255Z,29.10
2018-05-13T21:36:27.820Z,27.10
2018-05-13T21:38:57.778Z,28.47
2018-05-13T21:41:27.449Z,29.00
2018-05-13T21:43:59.645Z,29.23
2018-05-13T21:46:29.472Z,29.17
2018-05-13T21:49:03.428Z,29.03
2018-05-13T21:51:33.697Z,28.93
2018-05-13T21:54:03.484Z,29.27
2018-05-13T21:56:33.599Z,34.30
2018-05-13T21:59:15.616Z,29.17
2018-05-13T22:06:44.364Z,29.50
2018-05-13T22:09:14.134Z,29.57
2018-05-13T22:11:43.140Z,30.87
2018-05-13T22:18:53.508Z,28.57
2018-05-13T22:21:24.440Z,29.10
2018-05-13T22:23:54.166Z,30.47
2018-05-13T22:26:23.081Z,31.90
2018-05-13T22:28:52.620Z,31.47
2018-05-13T22:31:23.456Z,31.77
2018-05-13T22:33:53.241Z,30.67
2018-05-13T22:36:26.663Z,32.73
2018-05-13T22:38:56.166Z,33.37
2018-05-13T22:48:29.593Z,32.90
2018-05-13T22:55:40.739Z,33.47
2018-05-13T22:58:09.710Z,34.30
2018-05-13T23:00:39.577Z,33.43
2018-05-13T23:03:08.230Z,33.40
2018-05-13T23:05:37.807Z,31.87
2018-05-13T23:08:07.701Z,35.17
2018-05-13T23:10:40.666Z,35.80
2018-05-13T23:13:09.212Z,35.10
2018-05-13T23:15:41.052Z,36.30
2018-05-13T23:18:10.394Z,35.50
2018-05-13T23:20:45.420Z,32.70
2018-05-13T23:23:15.722Z,37.63
2018-05-13T23:25:48.010Z,35.17
2018-05-13T23:28:17.712Z,34.33
2018-05-13T23:30:50.232Z,37.27
2018-05-13T23:33:20.367Z,36.57
2018-05-13T23:36:01.911Z,36.47
2018-05-13T23:43:07.709Z,36.73
2018-05-13T23:50:46.363Z,36.30
2018-05-13T23:53:14.886Z,34.80
2018-05-13T23:55:44.491Z,37.33
2018-05-13T23:58:13.692Z,38.43
